sensor_id;sensor_type;location;lat;lon;timestamp;P1;durP1;ratioP1;P2;durP2;ratioP2
13408;SDS011;6775;49.574;11.170;2022-11-15T00:01:06;4.30;;;3.27;;
13408;SDS011;6775;49.574;11.170;2022-11-15T00:03:34;5.03;;;3.63;;
13408;SDS011;6775;49.574;11.170;2022-11-15T00:06:02;4.23;;;3.43;;
13408;SDS011;6775;49.574;11.170;2022-11-15T00:08:30;4.07;;;3.03;;
13408;SDS011;6775;49.574;11.170;2022-11-15T00:11:00;3.93;;;3.50;;
13408;SDS011;6775;49.574;11.170;2022-11-15T00:17:50;4.20;;;3.30;;
13408;SDS011;6775;49.574;11.170;2022-11-15T00:20:17;3.83;;;3.23;;
13408;SDS011;6775;49.574;11.170;2022-11-15T00:22:45;4.00;;;2.90;;
13408;SDS011;6775;49.574;11.170;2022-11-15T00:25:13;5.70;;;3.57;;
13408;SDS011;6775;49.574;11.170;2022-11-15T00:27:41;3.90;;;3.30;;
13408;SDS011;6775;49.574;11.170;2022-11-15T00:30:09;4.83;;;3.30;;
13408;SDS011;6775;49.574;11.170;2022-11-15T00:32:38;4.60;;;3.30;;
13408;SDS011;6775;49.574;11.170;2022-11-15T00:35:08;3.70;;;3.20;;
13408;SDS011;6775;49.574;11.170;2022-11-15T00:37:35;4.43;;;3.60;;
13408;SDS011;6775;49.574;11.170;2022-11-15T00:40:03;4.57;;;3.30;;
13408;SDS011;6775;49.574;11.170;2022-11-15T00:42:32;4.57;;;3.30;;
13408;SDS011;6775;49.574;11.170;2022-11-15T00:45:00;3.93;;;3.30;;
13408;SDS011;6775;49.574;11.170;2022-11-15T00:47:28;5.47;;;3.23;;
13408;SDS011;6775;49.574;11.170;2022-11-15T00:49:55;3.67;;;3.27;;
13408;SDS011;6775;49.574;11.170;2022-11-15T00:52:25;4.33;;;3.40;;
13408;SDS011;6775;49.574;11.170;2022-11-15T00:54:52;4.03;;;2.93;;
13408;SDS011;6775;49.574;11.170;2022-11-15T00:57:20;5.17;;;3.40;;
13408;SDS011;6775;49.574;11.170;2022-11-15T00:59:48;4.13;;;3.47;;
13408;SDS011;6775;49.574;11.170;2022-11-15T01:02:16;4.50;;;3.57;;
13408;SDS011;6775;49.574;11.170;2022-11-15T01:04:43;4.07;;;3.67;;
13408;SDS011;6775;49.574;11.170;2022-11-15T01:07:11;4.20;;;2.97;;
13408;SDS011;6775;49.574;11.170;2022-11-15T01:09:41;5.93;;;3.93;;
13408;SDS011;6775;49.574;11.170;2022-11-15T01:12:08;3.50;;;3.00;;
13408;SDS011;6775;49.574;11.170;2022-11-15T01:14:36;5.17;;;2.97;;
13408;SDS011;6775;49.574;11.170;2022-11-15T01:17:04;4.30;;;3.00;;
13408;SDS011;6775;49.574;11.170;2022-11-15T01:19:35;3.87;;;3.50;;
13408;SDS011;6775;49.574;11.170;2022-11-15T01:22:02;6.47;;;3.43;;
13408;SDS011;6775;49.574;11.170;2022-11-15T01:24:30;5.23;;;3.30;;
13408;SDS011;6775;49.574;11.170;2022-11-15T01:26:59;5.70;;;3.80;;
13408;SDS011;6775;49.574;11.170;2022-11-15T01:29:27;5.30;;;3.67;;
13408;SDS011;6775;49.574;11.170;2022-11-15T01:31:55;4.43;;;3.37;;
13408;SDS011;6775;49.574;11.170;2022-11-15T01:34:22;5.20;;;3.60;;
13408;SDS011;6775;49.574;11.170;2022-11-15T01:36:50;4.30;;;3.40;;
13408;SDS011;6775;49.574;11.170;2022-11-15T01:39:18;3.77;;;3.07;;
13408;SDS011;6775;49.574;11.170;2022-11-15T01:41:46;3.50;;;3.00;;
13408;SDS011;6775;49.574;11.170;2022-11-15T01:47:08;4.17;;;3.23;;
13408;SDS011;6775;49.574;11.170;2022-11-15T01:49:40;3.43;;;3.10;;
13408;SDS011;6775;49.574;11.170;2022-11-15T01:52:17;4.07;;;3.20;;
13408;SDS011;6775;49.574;11.170;2022-11-15T01:54:48;4.07;;;3.13;;
13408;SDS011;6775;49.574;11.170;2022-11-15T01:57:20;3.87;;;2.97;;
13408;SDS011;6775;49.574;11.170;2022-11-15T01:59:49;3.63;;;3.13;;
13408;SDS011;6775;49.574;11.170;2022-11-15T02:02:17;4.53;;;2.90;;
13408;SDS011;6775;49.574;11.170;2022-11-15T02:04:45;5.60;;;3.63;;
13408;SDS011;6775;49.574;11.170;2022-11-15T02:07:15;3.53;;;3.10;;
13408;SDS011;6775;49.574;11.170;2022-11-15T02:09:44;5.03;;;3.20;;
13408;SDS011;6775;49.574;11.170;2022-11-15T02:12:13;5.17;;;3.17;;
13408;SDS011;6775;49.574;11.170;2022-11-15T02:14:47;6.97;;;3.67;;
13408;SDS011;6775;49.574;11.170;2022-11-15T02:17:23;4.47;;;3.57;;
13408;SDS011;6775;49.574;11.170;2022-11-15T02:20:14;5.20;;;3.73;;
13408;SDS011;6775;49.574;11.170;2022-11-15T02:23:18;3.83;;;3.33;;
13408;SDS011;6775;49.574;11.170;2022-11-15T02:26:35;4.23;;;3.27;;
13408;SDS011;6775;49.574;11.170;2022-11-15T02:29:19;3.60;;;3.30;;
13408;SDS011;6775;49.574;11.170;2022-11-15T02:32:02;4.70;;;3.50;;
13408;SDS011;6775;49.574;11.170;2022-11-15T02:34:42;4.20;;;3.43;;
13408;SDS011;6775;49.574;11.170;2022-11-15T02:37:20;4.93;;;3.33;;
13408;SDS011;6775;49.574;11.170;2022-11-15T02:39:56;4.87;;;3.87;;
13408;SDS011;6775;49.574;11.170;2022-11-15T02:42:35;4.17;;;3.60;;
13408;SDS011;6775;49.574;11.170;2022-11-15T02:45:31;6.73;;;4.10;;
13408;SDS011;6775;49.574;11.170;2022-11-15T02:48:05;4.67;;;3.43;;
13408;SDS011;6775;49.574;11.170;2022-11-15T02:50:34;4.03;;;3.20;;
13408;SDS011;6775;49.574;11.170;2022-11-15T02:53:02;4.20;;;3.30;;
13408;SDS011;6775;49.574;11.170;2022-11-15T02:55:31;2.90;;;2.60;;
13408;SDS011;6775;49.574;11.170;2022-11-15T02:58:06;3.67;;;2.93;;
13408;SDS011;6775;49.574;11.170;2022-11-15T03:00:50;5.07;;;3.80;;
13408;SDS011;6775;49.574;11.170;2022-11-15T03:03:35;4.03;;;3.63;;
13408;SDS011;6775;49.574;11.170;2022-11-15T03:06:16;4.13;;;3.53;;
13408;SDS011;6775;49.574;11.170;2022-11-15T03:08:54;4.60;;;3.70;;
13408;SDS011;6775;49.574;11.170;2022-11-15T03:11:30;6.80;;;4.00;;
13408;SDS011;6775;49.574;11.170;2022-11-15T03:14:05;3.97;;;2.90;;
13408;SDS011;6775;49.574;11.170;2022-11-15T03:16:40;4.37;;;3.40;;
13408;SDS011;6775;49.574;11.170;2022-11-15T03:19:19;6.47;;;3.40;;
13408;SDS011;6775;49.574;11.170;2022-11-15T03:21:52;5.10;;;3.37;;
13408;SDS011;6775;49.574;11.170;2022-11-15T03:24:23;6.60;;;3.70;;
13408;SDS011;6775;49.574;11.170;2022-11-15T03:26:53;4.97;;;3.30;;
13408;SDS011;6775;49.574;11.170;2022-11-15T03:29:24;3.97;;;3.13;;
13408;SDS011;6775;49.574;11.170;2022-11-15T03:31:57;3.80;;;3.27;;
13408;SDS011;6775;49.574;11.170;2022-11-15T03:34:31;3.57;;;3.10;;
13408;SDS011;6775;49.574;11.170;2022-11-15T03:37:02;3.27;;;2.97;;
13408;SDS011;6775;49.574;11.170;2022-11-15T03:39:31;3.77;;;3.17;;
13408;SDS011;6775;49.574;11.170;2022-11-15T03:42:02;4.17;;;3.40;;
13408;SDS011;6775;49.574;11.170;2022-11-15T03:44:40;5.50;;;3.73;;
13408;SDS011;6775;49.574;11.170;2022-11-15T03:47:14;5.30;;;3.50;;
13408;SDS011;6775;49.574;11.170;2022-11-15T03:49:46;4.23;;;3.50;;
13408;SDS011;6775;49.574;11.170;2022-11-15T03:52:17;4.67;;;3.50;;
13408;SDS011;6775;49.574;11.170;2022-11-15T03:54:50;3.37;;;3.00;;
13408;SDS011;6775;49.574;11.170;2022-11-15T03:57:19;5.10;;;3.70;;
13408;SDS011;6775;49.574;11.170;2022-11-15T03:59:47;3.83;;;3.10;;
13408;SDS011;6775;49.574;11.170;2022-11-15T04:02:15;3.57;;;3.10;;
13408;SDS011;6775;49.574;11.170;2022-11-15T04:04:43;4.37;;;3.00;;
13408;SDS011;6775;49.574;11.170;2022-11-15T04:07:12;3.37;;;2.97;;
13408;SDS011;6775;49.574;11.170;2022-11-15T04:09:40;5.17;;;3.23;;
13408;SDS011;6775;49.574;11.170;2022-11-15T04:12:22;3.80;;;2.83;;
13408;SDS011;6775;49.574;11.170;2022-11-15T04:14:57;4.17;;;3.10;;
13408;SDS011;6775;49.574;11.170;2022-11-15T04:17:36;4.20;;;3.27;;
13408;SDS011;6775;49.574;11.170;2022-11-15T04:20:06;4.30;;;2.80;;
13408;SDS011;6775;49.574;11.170;2022-11-15T04:22:56;4.20;;;2.70;;
13408;SDS011;6775;49.574;11.170;2022-11-15T04:25:42;5.47;;;3.43;;
13408;SDS011;6775;49.574;11.170;2022-11-15T04:28:11;3.67;;;2.70;;
13408;SDS011;6775;49.574;11.170;2022-11-15T04:30:39;4.70;;;3.57;;
13408;SDS011;6775;49.574;11.170;2022-11-15T04:33:07;4.03;;;3.30;;
13408;SDS011;6775;49.574;11.170;2022-11-15T04:35:35;4.70;;;4.03;;
13408;SDS011;6775;49.574;11.170;2022-11-15T04:38:05;5.17;;;3.50;;
13408;SDS011;6775;49.574;11.170;2022-11-15T04:40:33;4.27;;;3.67;;
13408;SDS011;6775;49.574;11.170;2022-11-15T04:43:02;4.50;;;3.53;;
13408;SDS011;6775;49.574;11.170;2022-11-15T04:45:30;4.97;;;3.80;;
13408;SDS011;6775;49.574;11.170;2022-11-15T04:47:58;5.03;;;3.50;;
13408;SDS011;6775;49.574;11.170;2022-11-15T04:50:26;4.20;;;3.27;;
13408;SDS011;6775;49.574;11.170;2022-11-15T04:52:54;4.10;;;3.03;;
13408;SDS011;6775;49.574;11.170;2022-11-15T04:55:23;4.47;;;3.10;;
13408;SDS011;6775;49.574;11.170;2022-11-15T04:57:57;3.53;;;2.93;;
13408;SDS011;6775;49.574;11.170;2022-11-15T05:00:26;4.07;;;3.20;;
13408;SDS011;6775;49.574;11.170;2022-11-15T05:02:55;4.50;;;3.20;;
13408;SDS011;6775;49.574;11.170;2022-11-15T05:05:42;3.57;;;3.13;;
13408;SDS011;6775;49.574;11.170;2022-11-15T05:08:10;4.47;;;3.30;;
13408;SDS011;6775;49.574;11.170;2022-11-15T05:10:39;5.50;;;3.60;;
13408;SDS011;6775;49.574;11.170;2022-11-15T05:13:07;5.50;;;4.00;;
13408;SDS011;6775;49.574;11.170;2022-11-15T05:15:35;4.50;;;3.67;;
13408;SDS011;6775;49.574;11.170;2022-11-15T05:18:02;5.60;;;3.87;;
13408;SDS011;6775;49.574;11.170;2022-11-15T05:20:30;4.13;;;3.30;;
13408;SDS011;6775;49.574;11.170;2022-11-15T05:22:58;3.73;;;3.33;;
13408;SDS011;6775;49.574;11.170;2022-11-15T05:25:26;4.23;;;3.10;;
13408;SDS011;6775;49.574;11.170;2022-11-15T05:27:56;4.37;;;3.03;;
13408;SDS011;6775;49.574;11.170;2022-11-15T05:30:23;3.90;;;2.80;;
13408;SDS011;6775;49.574;11.170;2022-11-15T05:32:51;3.93;;;3.33;;
13408;SDS011;6775;49.574;11.170;2022-11-15T05:35:24;3.70;;;2.90;;
13408;SDS011;6775;49.574;11.170;2022-11-15T05:37:57;3.93;;;3.30;;
13408;SDS011;6775;49.574;11.170;2022-11-15T05:40:25;3.63;;;3.17;;
13408;SDS011;6775;49.574;11.170;2022-11-15T05:42:53;3.80;;;2.97;;
13408;SDS011;6775;49.574;11.170;2022-11-15T05:45:23;4.20;;;3.23;;
13408;SDS011;6775;49.574;11.170;2022-11-15T05:47:52;3.47;;;3.07;;
13408;SDS011;6775;49.574;11.170;2022-11-15T05:50:23;4.87;;;3.53;;
13408;SDS011;6775;49.574;11.170;2022-11-15T05:52:52;4.63;;;3.17;;
13408;SDS011;6775;49.574;11.170;2022-11-15T05:55:28;3.67;;;3.20;;
13408;SDS011;6775;49.574;11.170;2022-11-15T05:57:58;5.30;;;3.73;;
13408;SDS011;6775;49.574;11.170;2022-11-15T06:00:27;5.93;;;3.80;;
13408;SDS011;6775;49.574;11.170;2022-11-15T06:02:55;3.77;;;3.17;;
13408;SDS011;6775;49.574;11.170;2022-11-15T06:05:23;4.93;;;3.80;;
13408;SDS011;6775;49.574;11.170;2022-11-15T06:07:51;3.97;;;3.57;;
13408;SDS011;6775;49.574;11.170;2022-11-15T06:10:19;4.00;;;3.57;;
13408;SDS011;6775;49.574;11.170;2022-11-15T06:12:47;4.10;;;3.70;;
13408;SDS011;6775;49.574;11.170;2022-11-15T06:15:25;4.37;;;3.43;;
13408;SDS011;6775;49.574;11.170;2022-11-15T06:17:55;4.77;;;3.77;;
13408;SDS011;6775;49.574;11.170;2022-11-15T06:20:24;3.77;;;2.90;;
13408;SDS011;6775;49.574;11.170;2022-11-15T06:22:55;3.97;;;3.27;;
13408;SDS011;6775;49.574;11.170;2022-11-15T06:25:24;5.10;;;3.50;;
13408;SDS011;6775;49.574;11.170;2022-11-15T06:27:52;3.67;;;3.20;;
13408;SDS011;6775;49.574;11.170;2022-11-15T06:30:22;5.70;;;3.93;;
13408;SDS011;6775;49.574;11.170;2022-11-15T06:32:51;5.20;;;3.70;;
13408;SDS011;6775;49.574;11.170;2022-11-15T06:35:25;4.60;;;3.47;;
13408;SDS011;6775;49.574;11.170;2022-11-15T06:37:53;4.73;;;3.70;;
13408;SDS011;6775;49.574;11.170;2022-11-15T06:40:20;4.87;;;3.47;;
13408;SDS011;6775;49.574;11.170;2022-11-15T06:42:49;3.70;;;3.40;;
13408;SDS011;6775;49.574;11.170;2022-11-15T06:45:16;4.17;;;3.53;;
13408;SDS011;6775;49.574;11.170;2022-11-15T06:47:46;4.70;;;3.50;;
13408;SDS011;6775;49.574;11.170;2022-11-15T06:50:14;7.23;;;4.03;;
13408;SDS011;6775;49.574;11.170;2022-11-15T06:52:42;5.10;;;3.40;;
13408;SDS011;6775;49.574;11.170;2022-11-15T06:55:10;5.23;;;3.87;;
13408;SDS011;6775;49.574;11.170;2022-11-15T06:57:43;6.20;;;4.73;;
13408;SDS011;6775;49.574;11.170;2022-11-15T07:00:14;5.90;;;3.57;;
13408;SDS011;6775;49.574;11.170;2022-11-15T07:02:43;5.50;;;3.90;;
13408;SDS011;6775;49.574;11.170;2022-11-15T07:05:13;6.00;;;4.23;;
13408;SDS011;6775;49.574;11.170;2022-11-15T07:07:41;5.57;;;3.30;;
13408;SDS011;6775;49.574;11.170;2022-11-15T07:10:09;5.10;;;4.10;;
13408;SDS011;6775;49.574;11.170;2022-11-15T07:12:37;4.47;;;4.03;;
13408;SDS011;6775;49.574;11.170;2022-11-15T07:15:06;4.20;;;3.50;;
13408;SDS011;6775;49.574;11.170;2022-11-15T07:17:34;4.27;;;3.30;;
13408;SDS011;6775;49.574;11.170;2022-11-15T07:20:02;4.53;;;3.33;;
13408;SDS011;6775;49.574;11.170;2022-11-15T07:22:32;6.07;;;4.10;;
13408;SDS011;6775;49.574;11.170;2022-11-15T07:25:00;4.03;;;2.97;;
13408;SDS011;6775;49.574;11.170;2022-11-15T07:27:28;3.87;;;3.37;;
13408;SDS011;6775;49.574;11.170;2022-11-15T07:29:57;5.40;;;3.60;;
13408;SDS011;6775;49.574;11.170;2022-11-15T07:32:24;6.90;;;3.60;;
13408;SDS011;6775;49.574;11.170;2022-11-15T07:34:52;5.03;;;3.50;;
13408;SDS011;6775;49.574;11.170;2022-11-15T07:37:20;5.23;;;3.80;;
13408;SDS011;6775;49.574;11.170;2022-11-15T07:39:49;3.90;;;3.40;;
13408;SDS011;6775;49.574;11.170;2022-11-15T07:42:17;3.97;;;3.33;;
13408;SDS011;6775;49.574;11.170;2022-11-15T07:45:03;5.37;;;3.37;;
13408;SDS011;6775;49.574;11.170;2022-11-15T07:51:56;5.83;;;3.10;;
13408;SDS011;6775;49.574;11.170;2022-11-15T07:54:24;4.07;;;3.20;;
13408;SDS011;6775;49.574;11.170;2022-11-15T07:56:53;3.13;;;2.83;;
13408;SDS011;6775;49.574;11.170;2022-11-15T07:59:21;5.60;;;2.87;;
13408;SDS011;6775;49.574;11.170;2022-11-15T08:01:49;4.80;;;3.53;;
13408;SDS011;6775;49.574;11.170;2022-11-15T08:04:17;4.93;;;3.27;;
13408;SDS011;6775;49.574;11.170;2022-11-15T08:06:45;3.50;;;2.90;;
13408;SDS011;6775;49.574;11.170;2022-11-15T08:09:13;3.73;;;3.33;;
13408;SDS011;6775;49.574;11.170;2022-11-15T08:11:41;3.00;;;2.80;;
13408;SDS011;6775;49.574;11.170;2022-11-15T08:14:10;3.27;;;2.97;;
13408;SDS011;6775;49.574;11.170;2022-11-15T08:16:38;3.80;;;2.20;;
13408;SDS011;6775;49.574;11.170;2022-11-15T08:19:06;2.77;;;2.33;;
13408;SDS011;6775;49.574;11.170;2022-11-15T08:21:34;2.87;;;2.03;;
13408;SDS011;6775;49.574;11.170;2022-11-15T08:24:03;2.57;;;2.17;;
13408;SDS011;6775;49.574;11.170;2022-11-15T08:26:32;3.00;;;2.40;;
13408;SDS011;6775;49.574;11.170;2022-11-15T08:28:59;2.37;;;2.17;;
13408;SDS011;6775;49.574;11.170;2022-11-15T08:31:29;2.20;;;2.00;;
13408;SDS011;6775;49.574;11.170;2022-11-15T08:33:57;2.50;;;2.30;;
13408;SDS011;6775;49.574;11.170;2022-11-15T08:36:24;2.87;;;2.30;;
13408;SDS011;6775;49.574;11.170;2022-11-15T08:39:02;2.77;;;2.50;;
13408;SDS011;6775;49.574;11.170;2022-11-15T08:41:32;7.53;;;4.27;;
13408;SDS011;6775;49.574;11.170;2022-11-15T08:44:03;8.27;;;5.07;;
13408;SDS011;6775;49.574;11.170;2022-11-15T08:46:33;7.03;;;5.23;;
13408;SDS011;6775;49.574;11.170;2022-11-15T08:49:02;4.63;;;3.93;;
13408;SDS011;6775;49.574;11.170;2022-11-15T08:51:30;3.63;;;3.07;;
13408;SDS011;6775;49.574;11.170;2022-11-15T08:53:57;3.73;;;2.87;;
13408;SDS011;6775;49.574;11.170;2022-11-15T08:56:25;2.90;;;2.70;;
13408;SDS011;6775;49.574;11.170;2022-11-15T08:58:53;2.50;;;2.30;;
13408;SDS011;6775;49.574;11.170;2022-11-15T09:01:21;3.63;;;2.53;;
13408;SDS011;6775;49.574;11.170;2022-11-15T09:03:51;3.33;;;2.90;;
13408;SDS011;6775;49.574;11.170;2022-11-15T09:06:19;3.30;;;3.00;;
13408;SDS011;6775;49.574;11.170;2022-11-15T09:08:47;3.10;;;2.90;;
13408;SDS011;6775;49.574;11.170;2022-11-15T09:11:15;3.17;;;2.87;;
13408;SDS011;6775;49.574;11.170;2022-11-15T09:13:46;4.13;;;3.43;;
13408;SDS011;6775;49.574;11.170;2022-11-15T09:16:14;2.70;;;2.50;;
13408;SDS011;6775;49.574;11.170;2022-11-15T09:18:42;3.20;;;2.90;;
13408;SDS011;6775;49.574;11.170;2022-11-15T09:21:11;3.20;;;2.90;;
13408;SDS011;6775;49.574;11.170;2022-11-15T09:23:39;3.80;;;3.50;;
13408;SDS011;6775;49.574;11.170;2022-11-15T09:26:07;3.20;;;2.90;;
13408;SDS011;6775;49.574;11.170;2022-11-15T09:28:35;6.23;;;4.17;;
13408;SDS011;6775;49.574;11.170;2022-11-15T09:31:04;3.13;;;2.77;;
13408;SDS011;6775;49.574;11.170;2022-11-15T09:33:33;3.00;;;2.57;;
13408;SDS011;6775;49.574;11.170;2022-11-15T09:36:01;2.97;;;2.60;;
13408;SDS011;6775;49.574;11.170;2022-11-15T09:38:32;3.10;;;2.80;;
13408;SDS011;6775;49.574;11.170;2022-11-15T09:41:13;3.20;;;2.73;;
13408;SDS011;6775;49.574;11.170;2022-11-15T09:44:06;2.97;;;2.67;;
13408;SDS011;6775;49.574;11.170;2022-11-15T09:46:52;3.20;;;2.73;;
13408;SDS011;6775;49.574;11.170;2022-11-15T09:49:30;4.00;;;3.17;;
13408;SDS011;6775;49.574;11.170;2022-11-15T09:51:59;2.90;;;2.60;;
13408;SDS011;6775;49.574;11.170;2022-11-15T09:54:30;3.63;;;2.80;;
13408;SDS011;6775;49.574;11.170;2022-11-15T09:57:20;2.40;;;2.20;;
13408;SDS011;6775;49.574;11.170;2022-11-15T09:59:55;2.33;;;2.10;;
13408;SDS011;6775;49.574;11.170;2022-11-15T10:02:57;2.63;;;2.43;;
13408;SDS011;6775;49.574;11.170;2022-11-15T10:05:31;2.77;;;2.47;;
13408;SDS011;6775;49.574;11.170;2022-11-15T10:08:06;2.40;;;2.00;;
13408;SDS011;6775;49.574;11.170;2022-11-15T10:10:45;2.20;;;2.00;;
13408;SDS011;6775;49.574;11.170;2022-11-15T10:13:35;2.83;;;2.03;;
13408;SDS011;6775;49.574;11.170;2022-11-15T10:16:09;2.30;;;2.10;;
13408;SDS011;6775;49.574;11.170;2022-11-15T10:22:59;1.87;;;1.73;;
13408;SDS011;6775;49.574;11.170;2022-11-15T10:25:28;2.37;;;2.17;;
13408;SDS011;6775;49.574;11.170;2022-11-15T10:28:01;3.40;;;2.20;;
13408;SDS011;6775;49.574;11.170;2022-11-15T10:30:37;2.17;;;1.87;;
13408;SDS011;6775;49.574;11.170;2022-11-15T10:36:16;3.33;;;2.28;;
13408;SDS011;6775;49.574;11.170;2022-11-15T10:38:56;2.45;;;2.20;;
13408;SDS011;6775;49.574;11.170;2022-11-15T10:41:32;1.92;;;1.83;;
13408;SDS011;6775;49.574;11.170;2022-11-15T10:44:16;2.30;;;1.90;;
13408;SDS011;6775;49.574;11.170;2022-11-15T10:46:47;2.28;;;2.08;;
13408;SDS011;6775;49.574;11.170;2022-11-15T10:49:30;1.80;;;1.70;;
13408;SDS011;6775;49.574;11.170;2022-11-15T10:52:00;2.33;;;2.05;;
13408;SDS011;6775;49.574;11.170;2022-11-15T10:54:30;2.15;;;2.05;;
13408;SDS011;6775;49.574;11.170;2022-11-15T10:57:04;2.67;;;2.47;;
13408;SDS011;6775;49.574;11.170;2022-11-15T10:59:37;2.53;;;2.30;;
13408;SDS011;6775;49.574;11.170;2022-11-15T11:04:55;2.83;;;2.10;;
13408;SDS011;6775;49.574;11.170;2022-11-15T11:07:24;2.47;;;2.13;;
13408;SDS011;6775;49.574;11.170;2022-11-15T11:09:57;2.37;;;2.13;;
13408;SDS011;6775;49.574;11.170;2022-11-15T11:12:27;1.90;;;1.80;;
13408;SDS011;6775;49.574;11.170;2022-11-15T11:14:59;1.77;;;1.67;;
13408;SDS011;6775;49.574;11.170;2022-11-15T11:17:32;1.50;;;1.30;;
13408;SDS011;6775;49.574;11.170;2022-11-15T11:20:08;1.97;;;1.80;;
13408;SDS011;6775;49.574;11.170;2022-11-15T11:22:53;2.43;;;2.23;;
13408;SDS011;6775;49.574;11.170;2022-11-15T11:25:32;2.35;;;1.85;;
13408;SDS011;6775;49.574;11.170;2022-11-15T11:28:05;1.90;;;1.35;;
13408;SDS011;6775;49.574;11.170;2022-11-15T11:30:47;1.95;;;1.75;;
13408;SDS011;6775;49.574;11.170;2022-11-15T11:33:26;2.03;;;1.75;;
13408;SDS011;6775;49.574;11.170;2022-11-15T11:36:04;1.48;;;1.38;;
13408;SDS011;6775;49.574;11.170;2022-11-15T11:38:43;2.03;;;1.58;;
13408;SDS011;6775;49.574;11.170;2022-11-15T11:41:26;1.60;;;1.45;;
13408;SDS011;6775;49.574;11.170;2022-11-15T11:44:07;2.65;;;1.45;;
13408;SDS011;6775;49.574;11.170;2022-11-15T11:46:51;2.08;;;1.30;;
13408;SDS011;6775;49.574;11.170;2022-11-15T11:49:25;1.60;;;1.20;;
13408;SDS011;6775;49.574;11.170;2022-11-15T11:52:00;1.40;;;1.30;;
13408;SDS011;6775;49.574;11.170;2022-11-15T11:54:34;1.17;;;1.07;;
13408;SDS011;6775;49.574;11.170;2022-11-15T11:57:11;1.63;;;1.30;;
13408;SDS011;6775;49.574;11.170;2022-11-15T11:59:48;1.80;;;1.37;;
13408;SDS011;6775;49.574;11.170;2022-11-15T12:02:27;1.30;;;1.20;;
13408;SDS011;6775;49.574;11.170;2022-11-15T12:05:01;1.50;;;1.27;;
13408;SDS011;6775;49.574;11.170;2022-11-15T12:07:36;1.73;;;1.10;;
13408;SDS011;6775;49.574;11.170;2022-11-15T12:10:11;1.27;;;1.17;;
13408;SDS011;6775;49.574;11.170;2022-11-15T12:12:49;1.30;;;1.20;;
13408;SDS011;6775;49.574;11.170;2022-11-15T12:15:23;1.53;;;1.27;;
13408;SDS011;6775;49.574;11.170;2022-11-15T12:17:56;1.43;;;1.20;;
13408;SDS011;6775;49.574;11.170;2022-11-15T12:20:26;3.10;;;1.10;;
13408;SDS011;6775;49.574;11.170;2022-11-15T12:23:01;2.23;;;1.30;;
13408;SDS011;6775;49.574;11.170;2022-11-15T12:25:35;2.57;;;1.30;;
13408;SDS011;6775;49.574;11.170;2022-11-15T12:28:12;1.37;;;1.20;;
13408;SDS011;6775;49.574;11.170;2022-11-15T12:30:45;1.37;;;1.20;;
13408;SDS011;6775;49.574;11.170;2022-11-15T12:33:30;1.70;;;1.13;;
13408;SDS011;6775;49.574;11.170;2022-11-15T12:36:00;1.50;;;1.40;;
13408;SDS011;6775;49.574;11.170;2022-11-15T12:38:50;1.43;;;1.30;;
13408;SDS011;6775;49.574;11.170;2022-11-15T12:41:21;1.40;;;1.20;;
13408;SDS011;6775;49.574;11.170;2022-11-15T12:43:50;1.53;;;1.20;;
13408;SDS011;6775;49.574;11.170;2022-11-15T12:46:20;1.37;;;1.27;;
13408;SDS011;6775;49.574;11.170;2022-11-15T12:48:53;1.20;;;1.10;;
13408;SDS011;6775;49.574;11.170;2022-11-15T13:03:18;1.40;;;1.30;;
13408;SDS011;6775;49.574;11.170;2022-11-15T13:06:08;1.97;;;1.47;;
13408;SDS011;6775;49.574;11.170;2022-11-15T13:09:00;1.50;;;1.40;;
13408;SDS011;6775;49.574;11.170;2022-11-15T13:11:47;1.60;;;1.50;;
13408;SDS011;6775;49.574;11.170;2022-11-15T13:23:01;1.60;;;1.37;;
13408;SDS011;6775;49.574;11.170;2022-11-15T13:28:47;1.80;;;1.20;;
13408;SDS011;6775;49.574;11.170;2022-11-15T13:34:15;1.30;;;1.20;;
13408;SDS011;6775;49.574;11.170;2022-11-15T13:37:27;1.90;;;1.30;;
13408;SDS011;6775;49.574;11.170;2022-11-15T13:40:10;1.43;;;1.33;;
13408;SDS011;6775;49.574;11.170;2022-11-15T13:42:56;1.20;;;1.10;;
13408;SDS011;6775;49.574;11.170;2022-11-15T13:45:24;1.23;;;1.10;;
13408;SDS011;6775;49.574;11.170;2022-11-15T13:47:57;1.80;;;1.30;;
13408;SDS011;6775;49.574;11.170;2022-11-15T13:50:32;1.30;;;1.20;;
13408;SDS011;6775;49.574;11.170;2022-11-15T13:53:05;1.50;;;1.30;;
13408;SDS011;6775;49.574;11.170;2022-11-15T13:55:33;1.53;;;1.37;;
13408;SDS011;6775;49.574;11.170;2022-11-15T13:58:02;1.80;;;1.27;;
13408;SDS011;6775;49.574;11.170;2022-11-15T14:00:40;3.60;;;1.40;;
13408;SDS011;6775;49.574;11.170;2022-11-15T14:03:12;1.60;;;1.50;;
13408;SDS011;6775;49.574;11.170;2022-11-15T14:05:45;1.33;;;1.23;;
13408;SDS011;6775;49.574;11.170;2022-11-15T14:08:30;1.90;;;1.50;;
13408;SDS011;6775;49.574;11.170;2022-11-15T14:11:06;1.20;;;1.10;;
13408;SDS011;6775;49.574;11.170;2022-11-15T14:13:36;1.80;;;1.20;;
13408;SDS011;6775;49.574;11.170;2022-11-15T14:16:14;1.13;;;1.03;;
13408;SDS011;6775;49.574;11.170;2022-11-15T14:18:45;1.80;;;1.30;;
13408;SDS011;6775;49.574;11.170;2022-11-15T14:21:15;1.23;;;1.13;;
13408;SDS011;6775;49.574;11.170;2022-11-15T14:23:45;2.47;;;1.73;;
13408;SDS011;6775;49.574;11.170;2022-11-15T14:26:28;1.57;;;1.40;;
13408;SDS011;6775;49.574;11.170;2022-11-15T14:28:57;1.97;;;1.20;;
13408;SDS011;6775;49.574;11.170;2022-11-15T14:31:45;1.33;;;1.23;;
13408;SDS011;6775;49.574;11.170;2022-11-15T14:34:13;1.30;;;1.13;;
13408;SDS011;6775;49.574;11.170;2022-11-15T14:36:41;1.10;;;0.90;;
13408;SDS011;6775;49.574;11.170;2022-11-15T14:39:10;1.70;;;1.20;;
13408;SDS011;6775;49.574;11.170;2022-11-15T14:41:38;1.50;;;1.30;;
13408;SDS011;6775;49.574;11.170;2022-11-15T14:44:06;2.07;;;1.40;;
13408;SDS011;6775;49.574;11.170;2022-11-15T14:46:37;1.47;;;1.37;;
13408;SDS011;6775;49.574;11.170;2022-11-15T14:49:05;2.03;;;1.47;;
13408;SDS011;6775;49.574;11.170;2022-11-15T14:51:33;2.70;;;1.60;;
13408;SDS011;6775;49.574;11.170;2022-11-15T14:54:01;3.73;;;2.10;;
13408;SDS011;6775;49.574;11.170;2022-11-15T14:56:30;2.63;;;1.90;;
13408;SDS011;6775;49.574;11.170;2022-11-15T14:58:58;4.50;;;2.60;;
13408;SDS011;6775;49.574;11.170;2022-11-15T15:01:26;8.13;;;4.80;;
13408;SDS011;6775;49.574;11.170;2022-11-15T15:03:54;10.27;;;6.67;;
13408;SDS011;6775;49.574;11.170;2022-11-15T15:06:23;9.63;;;6.37;;
13408;SDS011;6775;49.574;11.170;2022-11-15T15:08:51;12.27;;;6.10;;
13408;SDS011;6775;49.574;11.170;2022-11-15T15:11:20;11.13;;;5.57;;
13408;SDS011;6775;49.574;11.170;2022-11-15T15:13:51;5.37;;;3.03;;
13408;SDS011;6775;49.574;11.170;2022-11-15T15:16:22;3.70;;;2.77;;
13408;SDS011;6775;49.574;11.170;2022-11-15T15:18:50;5.17;;;2.83;;
13408;SDS011;6775;49.574;11.170;2022-11-15T15:21:20;3.90;;;1.90;;
13408;SDS011;6775;49.574;11.170;2022-11-15T15:23:49;3.80;;;2.23;;
13408;SDS011;6775;49.574;11.170;2022-11-15T15:26:17;2.97;;;2.47;;
13408;SDS011;6775;49.574;11.170;2022-11-15T15:28:45;4.07;;;2.33;;
13408;SDS011;6775;49.574;11.170;2022-11-15T15:31:16;2.03;;;1.57;;
13408;SDS011;6775;49.574;11.170;2022-11-15T15:33:44;2.10;;;1.80;;
13408;SDS011;6775;49.574;11.170;2022-11-15T15:36:12;3.33;;;1.97;;
13408;SDS011;6775;49.574;11.170;2022-11-15T15:38:43;2.80;;;1.80;;
13408;SDS011;6775;49.574;11.170;2022-11-15T15:41:13;3.00;;;1.93;;
13408;SDS011;6775;49.574;11.170;2022-11-15T15:43:42;3.08;;;2.05;;
13408;SDS011;6775;49.574;11.170;2022-11-15T15:46:11;3.07;;;2.30;;
13408;SDS011;6775;49.574;11.170;2022-11-15T15:48:42;2.60;;;2.27;;
13408;SDS011;6775;49.574;11.170;2022-11-15T15:51:10;2.80;;;1.90;;
13408;SDS011;6775;49.574;11.170;2022-11-15T15:53:45;3.13;;;2.50;;
13408;SDS011;6775;49.574;11.170;2022-11-15T15:56:14;4.20;;;3.20;;
13408;SDS011;6775;49.574;11.170;2022-11-15T15:58:42;4.67;;;3.43;;
13408;SDS011;6775;49.574;11.170;2022-11-15T16:01:10;6.30;;;4.10;;
13408;SDS011;6775;49.574;11.170;2022-11-15T16:03:38;4.97;;;3.90;;
13408;SDS011;6775;49.574;11.170;2022-11-15T16:09:12;5.23;;;3.00;;